sensor_id;sensor_type;location;lat;lon;timestamp;P1;durP1;ratioP1;P2;durP2;ratioP2
14939;SDS011;11825;51.898;8.202;2023-05-10T04:35:39;3.70;;;2.93;;
14939;SDS011;11825;51.898;8.202;2023-05-10T04:40:41;3.00;;;2.70;;
14939;SDS011;11825;51.898;8.202;2023-05-10T05:27:59;3.70;;;2.83;;
14939;SDS011;11825;51.898;8.202;2023-05-10T06:25:52;8.53;;;5.60;;
14939;SDS011;11825;51.898;8.202;2023-05-10T06:30:53;5.70;;;4.90;;
14939;SDS011;11825;51.898;8.202;2023-05-10T08:02:09;28.70;;;17.23;;
14939;SDS011;11825;51.898;8.202;2023-05-10T08:07:12;29.93;;;18.10;;
14939;SDS011;11825;51.898;8.202;2023-05-10T08:12:13;30.02;;;21.90;;
14939;SDS011;11825;51.898;8.202;2023-05-10T08:17:15;29.50;;;20.97;;
14939;SDS011;11825;51.898;8.202;2023-05-10T08:22:20;30.73;;;18.27;;
14939;SDS011;11825;51.898;8.202;2023-05-10T08:27:21;25.40;;;18.43;;
14939;SDS011;11825;51.898;8.202;2023-05-10T08:32:23;30.83;;;21.30;;
14939;SDS011;11825;51.898;8.202;2023-05-10T08:37:25;29.03;;;21.50;;
14939;SDS011;11825;51.898;8.202;2023-05-10T09:08:52;26.17;;;19.77;;
14939;SDS011;11825;51.898;8.202;2023-05-10T09:13:53;24.63;;;19.60;;
14939;SDS011;11825;51.898;8.202;2023-05-10T09:18:57;26.53;;;18.43;;
14939;SDS011;11825;51.898;8.202;2023-05-10T09:24:02;22.60;;;17.57;;
14939;SDS011;11825;51.898;8.202;2023-05-10T09:29:05;19.53;;;17.23;;
14939;SDS011;11825;51.898;8.202;2023-05-10T09:34:07;16.90;;;14.63;;
14939;SDS011;11825;51.898;8.202;2023-05-10T09:39:09;20.17;;;16.63;;
14939;SDS011;11825;51.898;8.202;2023-05-10T09:44:11;21.17;;;16.53;;
14939;SDS011;11825;51.898;8.202;2023-05-10T09:49:14;18.10;;;16.20;;
14939;SDS011;11825;51.898;8.202;2023-05-10T09:54:16;15.17;;;13.40;;
14939;SDS011;11825;51.898;8.202;2023-05-10T09:59:18;16.20;;;14.45;;
14939;SDS011;11825;51.898;8.202;2023-05-10T10:04:20;17.83;;;11.70;;
14939;SDS011;11825;51.898;8.202;2023-05-10T10:09:22;12.57;;;10.97;;
14939;SDS011;11825;51.898;8.202;2023-05-10T10:14:24;17.67;;;10.07;;
14939;SDS011;11825;51.898;8.202;2023-05-10T10:19:26;14.60;;;9.90;;
14939;SDS011;11825;51.898;8.202;2023-05-10T10:24:28;12.73;;;10.90;;
14939;SDS011;11825;51.898;8.202;2023-05-10T10:29:32;13.93;;;10.93;;
14939;SDS011;11825;51.898;8.202;2023-05-10T10:34:56;15.10;;;12.03;;
14939;SDS011;11825;51.898;8.202;2023-05-10T10:39:58;14.13;;;11.57;;
14939;SDS011;11825;51.898;8.202;2023-05-10T10:45:12;14.50;;;12.63;;
14939;SDS011;11825;51.898;8.202;2023-05-10T10:50:15;16.52;;;14.20;;
14939;SDS011;11825;51.898;8.202;2023-05-10T10:55:20;15.93;;;13.70;;
14939;SDS011;11825;51.898;8.202;2023-05-10T11:10:37;9.30;;;8.27;;
14939;SDS011;11825;51.898;8.202;2023-05-10T11:15:40;12.57;;;11.30;;
14939;SDS011;11825;51.898;8.202;2023-05-10T11:20:50;14.20;;;10.97;;
14939;SDS011;11825;51.898;8.202;2023-05-10T11:25:54;12.73;;;11.17;;
14939;SDS011;11825;51.898;8.202;2023-05-10T11:30:56;16.30;;;13.65;;
14939;SDS011;11825;51.898;8.202;2023-05-10T11:35:58;19.07;;;14.03;;
14939;SDS011;11825;51.898;8.202;2023-05-10T11:41:00;15.37;;;11.93;;
14939;SDS011;11825;51.898;8.202;2023-05-10T11:46:02;16.43;;;12.50;;
14939;SDS011;11825;51.898;8.202;2023-05-10T11:51:04;14.73;;;12.97;;
14939;SDS011;11825;51.898;8.202;2023-05-10T11:56:06;18.87;;;14.70;;
14939;SDS011;11825;51.898;8.202;2023-05-10T12:01:09;20.27;;;13.00;;
14939;SDS011;11825;51.898;8.202;2023-05-10T12:06:11;17.47;;;11.80;;
14939;SDS011;11825;51.898;8.202;2023-05-10T12:11:13;16.83;;;13.17;;
14939;SDS011;11825;51.898;8.202;2023-05-10T12:16:17;19.55;;;16.23;;
14939;SDS011;11825;51.898;8.202;2023-05-10T12:21:20;18.70;;;16.37;;
14939;SDS011;11825;51.898;8.202;2023-05-10T12:26:22;17.63;;;14.03;;
14939;SDS011;11825;51.898;8.202;2023-05-10T12:31:25;17.03;;;13.77;;
14939;SDS011;11825;51.898;8.202;2023-05-10T12:36:27;17.97;;;14.50;;
14939;SDS011;11825;51.898;8.202;2023-05-10T12:41:29;17.97;;;15.00;;
14939;SDS011;11825;51.898;8.202;2023-05-10T12:46:30;15.60;;;13.33;;
14939;SDS011;11825;51.898;8.202;2023-05-10T12:51:33;14.60;;;12.27;;
14939;SDS011;11825;51.898;8.202;2023-05-10T12:56:35;14.27;;;12.77;;
14939;SDS011;11825;51.898;8.202;2023-05-10T13:01:38;11.47;;;9.23;;
14939;SDS011;11825;51.898;8.202;2023-05-10T13:06:40;12.73;;;9.50;;
14939;SDS011;11825;51.898;8.202;2023-05-10T13:11:41;11.00;;;9.90;;
14939;SDS011;11825;51.898;8.202;2023-05-10T13:16:43;13.40;;;11.77;;
14939;SDS011;11825;51.898;8.202;2023-05-10T13:21:45;14.50;;;13.00;;
14939;SDS011;11825;51.898;8.202;2023-05-10T13:26:47;15.50;;;13.03;;
14939;SDS011;11825;51.898;8.202;2023-05-10T13:31:49;18.00;;;14.57;;
14939;SDS011;11825;51.898;8.202;2023-05-10T13:36:52;15.40;;;13.33;;
14939;SDS011;11825;51.898;8.202;2023-05-10T13:41:54;14.57;;;13.07;;
14939;SDS011;11825;51.898;8.202;2023-05-10T13:46:56;15.10;;;13.43;;
14939;SDS011;11825;51.898;8.202;2023-05-10T13:51:58;18.03;;;14.07;;
14939;SDS011;11825;51.898;8.202;2023-05-10T13:57:00;18.17;;;13.73;;
14939;SDS011;11825;51.898;8.202;2023-05-10T14:02:02;16.97;;;14.67;;
14939;SDS011;11825;51.898;8.202;2023-05-10T14:07:07;12.40;;;11.10;;
14939;SDS011;11825;51.898;8.202;2023-05-10T14:12:08;15.00;;;12.63;;
14939;SDS011;11825;51.898;8.202;2023-05-10T14:17:10;12.10;;;10.83;;
14939;SDS011;11825;51.898;8.202;2023-05-10T14:22:12;14.97;;;11.87;;
14939;SDS011;11825;51.898;8.202;2023-05-10T14:27:14;14.97;;;12.17;;
14939;SDS011;11825;51.898;8.202;2023-05-10T14:32:16;12.70;;;11.37;;
14939;SDS011;11825;51.898;8.202;2023-05-10T14:37:18;13.23;;;11.83;;
14939;SDS011;11825;51.898;8.202;2023-05-10T14:42:20;15.03;;;12.17;;
14939;SDS011;11825;51.898;8.202;2023-05-10T14:47:22;13.97;;;11.87;;
14939;SDS011;11825;51.898;8.202;2023-05-10T14:52:24;15.90;;;13.40;;
14939;SDS011;11825;51.898;8.202;2023-05-10T14:57:25;16.63;;;13.57;;
14939;SDS011;11825;51.898;8.202;2023-05-10T15:02:30;18.33;;;13.00;;
14939;SDS011;11825;51.898;8.202;2023-05-10T15:07:33;17.03;;;14.23;;
14939;SDS011;11825;51.898;8.202;2023-05-10T15:12:34;16.10;;;13.40;;
14939;SDS011;11825;51.898;8.202;2023-05-10T15:17:36;16.37;;;14.40;;
14939;SDS011;11825;51.898;8.202;2023-05-10T15:22:38;17.27;;;14.57;;
14939;SDS011;11825;51.898;8.202;2023-05-10T15:27:40;17.23;;;15.40;;
14939;SDS011;11825;51.898;8.202;2023-05-10T15:43:36;18.23;;;13.83;;
14939;SDS011;11825;51.898;8.202;2023-05-10T15:59:27;16.43;;;13.90;;
14939;SDS011;11825;51.898;8.202;2023-05-10T16:04:29;17.63;;;15.07;;
14939;SDS011;11825;51.898;8.202;2023-05-10T16:14:48;17.23;;;13.70;;
14939;SDS011;11825;51.898;8.202;2023-05-10T16:19:49;18.23;;;13.73;;
14939;SDS011;11825;51.898;8.202;2023-05-10T17:14:38;16.97;;;15.07;;
14939;SDS011;11825;51.898;8.202;2023-05-10T17:30:30;21.13;;;16.80;;
14939;SDS011;11825;51.898;8.202;2023-05-10T19:37:22;18.23;;;16.30;;
14939;SDS011;11825;51.898;8.202;2023-05-10T19:42:24;16.57;;;14.30;;
14939;SDS011;11825;51.898;8.202;2023-05-10T19:47:26;19.97;;;15.77;;
14939;SDS011;11825;51.898;8.202;2023-05-10T19:52:28;17.10;;;14.53;;
14939;SDS011;11825;51.898;8.202;2023-05-10T19:57:32;16.97;;;15.17;;
14939;SDS011;11825;51.898;8.202;2023-05-10T20:02:34;17.50;;;13.17;;
14939;SDS011;11825;51.898;8.202;2023-05-10T20:07:35;21.80;;;15.87;;
14939;SDS011;11825;51.898;8.202;2023-05-10T20:12:37;17.60;;;13.90;;
14939;SDS011;11825;51.898;8.202;2023-05-10T20:17:39;19.63;;;15.20;;
14939;SDS011;11825;51.898;8.202;2023-05-10T20:22:44;17.73;;;14.70;;
14939;SDS011;11825;51.898;8.202;2023-05-10T20:27:46;18.83;;;16.13;;
14939;SDS011;11825;51.898;8.202;2023-05-10T20:32:50;19.07;;;16.53;;
14939;SDS011;11825;51.898;8.202;2023-05-10T20:37:54;18.43;;;16.23;;
14939;SDS011;11825;51.898;8.202;2023-05-10T20:42:56;18.67;;;16.50;;
14939;SDS011;11825;51.898;8.202;2023-05-10T20:47:57;18.73;;;16.70;;
14939;SDS011;11825;51.898;8.202;2023-05-10T20:52:59;23.43;;;17.77;;
14939;SDS011;11825;51.898;8.202;2023-05-10T20:58:01;20.27;;;16.77;;
14939;SDS011;11825;51.898;8.202;2023-05-10T21:03:05;23.17;;;18.53;;
14939;SDS011;11825;51.898;8.202;2023-05-10T21:08:07;19.90;;;17.43;;
14939;SDS011;11825;51.898;8.202;2023-05-10T21:13:09;21.17;;;19.03;;
14939;SDS011;11825;51.898;8.202;2023-05-10T21:18:10;22.53;;;18.47;;
14939;SDS011;11825;51.898;8.202;2023-05-10T21:23:12;21.47;;;18.50;;
14939;SDS011;11825;51.898;8.202;2023-05-10T21:28:14;20.77;;;18.40;;
14939;SDS011;11825;51.898;8.202;2023-05-10T21:33:16;21.83;;;17.70;;
14939;SDS011;11825;51.898;8.202;2023-05-10T21:38:18;18.83;;;16.73;;
14939;SDS011;11825;51.898;8.202;2023-05-10T21:43:20;19.37;;;17.00;;
14939;SDS011;11825;51.898;8.202;2023-05-10T21:48:21;18.07;;;16.07;;
14939;SDS011;11825;51.898;8.202;2023-05-10T21:53:23;23.67;;;16.27;;
14939;SDS011;11825;51.898;8.202;2023-05-10T21:58:25;19.03;;;15.77;;
14939;SDS011;11825;51.898;8.202;2023-05-10T22:03:28;17.60;;;15.87;;
14939;SDS011;11825;51.898;8.202;2023-05-10T22:08:30;15.60;;;13.77;;
14939;SDS011;11825;51.898;8.202;2023-05-10T22:13:31;17.67;;;15.37;;
14939;SDS011;11825;51.898;8.202;2023-05-10T22:18:33;17.13;;;14.23;;
14939;SDS011;11825;51.898;8.202;2023-05-10T22:23:35;18.10;;;13.77;;
14939;SDS011;11825;51.898;8.202;2023-05-10T22:28:37;16.87;;;15.17;;
14939;SDS011;11825;51.898;8.202;2023-05-10T22:33:38;17.53;;;13.77;;
14939;SDS011;11825;51.898;8.202;2023-05-10T22:38:40;16.13;;;13.17;;
14939;SDS011;11825;51.898;8.202;2023-05-10T22:43:42;15.60;;;13.97;;
14939;SDS011;11825;51.898;8.202;2023-05-10T22:48:45;16.67;;;14.67;;
14939;SDS011;11825;51.898;8.202;2023-05-10T22:53:48;13.87;;;12.47;;
14939;SDS011;11825;51.898;8.202;2023-05-10T22:58:50;16.00;;;14.30;;
14939;SDS011;11825;51.898;8.202;2023-05-10T23:03:51;15.33;;;13.70;;
14939;SDS011;11825;51.898;8.202;2023-05-10T23:08:53;18.07;;;13.70;;
14939;SDS011;11825;51.898;8.202;2023-05-10T23:13:55;16.37;;;13.97;;
14939;SDS011;11825;51.898;8.202;2023-05-10T23:18:57;17.67;;;13.57;;
14939;SDS011;11825;51.898;8.202;2023-05-10T23:23:59;18.07;;;13.93;;
14939;SDS011;11825;51.898;8.202;2023-05-10T23:29:01;17.70;;;14.87;;
14939;SDS011;11825;51.898;8.202;2023-05-10T23:34:03;17.83;;;15.93;;
14939;SDS011;11825;51.898;8.202;2023-05-10T23:39:04;15.47;;;13.87;;
14939;SDS011;11825;51.898;8.202;2023-05-10T23:44:08;15.73;;;12.13;;
14939;SDS011;11825;51.898;8.202;2023-05-10T23:49:10;15.37;;;12.63;;
14939;SDS011;11825;51.898;8.202;2023-05-10T23:54:11;11.40;;;10.13;;
14939;SDS011;11825;51.898;8.202;2023-05-10T23:59:13;11.77;;;10.07;;
